sensor_id;sensor_type;location;lat;lon;timestamp;temperature;humidity
44229;DHT22;29904;51.058;5.378;2023-02-21T00:02:35;8.50;99.90
44229;DHT22;29904;51.058;5.378;2023-02-21T00:05:19;8.50;99.90
44229;DHT22;29904;51.058;5.378;2023-02-21T00:08:06;8.60;99.90
44229;DHT22;29904;51.058;5.378;2023-02-21T00:10:50;8.60;99.90
44229;DHT22;29904;51.058;5.378;2023-02-21T00:13:37;8.50;99.90
44229;DHT22;29904;51.058;5.378;2023-02-21T00:16:21;8.50;99.90
44229;DHT22;29904;51.058;5.378;2023-02-21T00:19:06;8.50;99.90
44229;DHT22;29904;51.058;5.378;2023-02-21T00:21:50;8.50;99.90
44229;DHT22;29904;51.058;5.378;2023-02-21T00:24:37;8.50;99.90
44229;DHT22;29904;51.058;5.378;2023-02-21T00:27:21;8.60;99.90
44229;DHT22;29904;51.058;5.378;2023-02-21T00:30:09;8.60;99.90
44229;DHT22;29904;51.058;5.378;2023-02-21T00:32:54;8.60;99.90
44229;DHT22;29904;51.058;5.378;2023-02-21T00:35:38;8.60;99.90
44229;DHT22;29904;51.058;5.378;2023-02-21T00:38:22;8.60;99.90
44229;DHT22;29904;51.058;5.378;2023-02-21T00:41:07;8.60;99.90
44229;DHT22;29904;51.058;5.378;2023-02-21T00:43:51;8.50;99.90
44229;DHT22;29904;51.058;5.378;2023-02-21T00:46:36;8.50;99.90
44229;DHT22;29904;51.058;5.378;2023-02-21T00:49:20;8.50;99.90
44229;DHT22;29904;51.058;5.378;2023-02-21T00:52:04;8.40;99.90
44229;DHT22;29904;51.058;5.378;2023-02-21T00:54:48;8.50;99.90
44229;DHT22;29904;51.058;5.378;2023-02-21T00:57:33;8.50;99.90
44229;DHT22;29904;51.058;5.378;2023-02-21T01:00:20;8.60;99.90
44229;DHT22;29904;51.058;5.378;2023-02-21T01:03:05;8.50;99.90
44229;DHT22;29904;51.058;5.378;2023-02-21T01:05:51;8.50;99.90
44229;DHT22;29904;51.058;5.378;2023-02-21T01:08:35;8.50;99.90
44229;DHT22;29904;51.058;5.378;2023-02-21T01:11:21;8.50;99.90
44229;DHT22;29904;51.058;5.378;2023-02-21T01:14:06;8.40;99.90
44229;DHT22;29904;51.058;5.378;2023-02-21T01:16:51;8.40;99.90
44229;DHT22;29904;51.058;5.378;2023-02-21T01:19:35;8.40;99.90
44229;DHT22;29904;51.058;5.378;2023-02-21T01:22:21;8.40;99.90
44229;DHT22;29904;51.058;5.378;2023-02-21T01:25:07;8.40;99.90
44229;DHT22;29904;51.058;5.378;2023-02-21T01:27:53;8.30;99.90
44229;DHT22;29904;51.058;5.378;2023-02-21T01:30:39;8.30;99.90
44229;DHT22;29904;51.058;5.378;2023-02-21T01:33:24;8.30;99.90
44229;DHT22;29904;51.058;5.378;2023-02-21T01:36:09;8.30;99.90
44229;DHT22;29904;51.058;5.378;2023-02-21T01:38:53;8.30;99.90
44229;DHT22;29904;51.058;5.378;2023-02-21T01:41:37;8.30;99.90
44229;DHT22;29904;51.058;5.378;2023-02-21T01:44:44;8.30;99.90
44229;DHT22;29904;51.058;5.378;2023-02-21T01:47:31;8.30;99.90
44229;DHT22;29904;51.058;5.378;2023-02-21T01:53:07;8.40;99.90
44229;DHT22;29904;51.058;5.378;2023-02-21T01:55:55;8.40;99.90
44229;DHT22;29904;51.058;5.378;2023-02-21T01:58:40;8.40;99.90
44229;DHT22;29904;51.058;5.378;2023-02-21T02:01:32;8.40;99.90
44229;DHT22;29904;51.058;5.378;2023-02-21T02:04:17;8.40;99.90
44229;DHT22;29904;51.058;5.378;2023-02-21T02:07:02;8.30;99.90
44229;DHT22;29904;51.058;5.378;2023-02-21T02:09:46;8.30;99.90
44229;DHT22;29904;51.058;5.378;2023-02-21T02:15:20;8.30;99.90
44229;DHT22;29904;51.058;5.378;2023-02-21T02:32:45;8.30;99.90
44229;DHT22;29904;51.058;5.378;2023-02-21T02:37:59;8.20;99.90
44229;DHT22;29904;51.058;5.378;2023-02-21T02:45:50;8.10;99.90
44229;DHT22;29904;51.058;5.378;2023-02-21T02:49:01;8.20;99.90
44229;DHT22;29904;51.058;5.378;2023-02-21T02:51:28;8.10;99.90
44229;DHT22;29904;51.058;5.378;2023-02-21T02:53:59;8.10;99.90
44229;DHT22;29904;51.058;5.378;2023-02-21T02:56:24;8.10;99.90
44229;DHT22;29904;51.058;5.378;2023-02-21T02:59:00;8.20;99.90
44229;DHT22;29904;51.058;5.378;2023-02-21T03:01:35;8.30;99.90
44229;DHT22;29904;51.058;5.378;2023-02-21T03:10:22;8.20;99.90
44229;DHT22;29904;51.058;5.378;2023-02-21T03:13:11;8.10;99.90
44229;DHT22;29904;51.058;5.378;2023-02-21T03:20:41;8.10;99.90
44229;DHT22;29904;51.058;5.378;2023-02-21T03:23:11;8.10;99.90
44229;DHT22;29904;51.058;5.378;2023-02-21T03:25:40;8.10;99.90
44229;DHT22;29904;51.058;5.378;2023-02-21T03:28:06;8.10;99.90
44229;DHT22;29904;51.058;5.378;2023-02-21T03:30:34;8.10;99.90
44229;DHT22;29904;51.058;5.378;2023-02-21T03:33:00;8.10;99.90
44229;DHT22;29904;51.058;5.378;2023-02-21T03:35:29;8.10;99.90
44229;DHT22;29904;51.058;5.378;2023-02-21T03:37:57;8.10;99.90
44229;DHT22;29904;51.058;5.378;2023-02-21T03:40:26;8.00;99.90
44229;DHT22;29904;51.058;5.378;2023-02-21T03:42:55;8.00;99.90
44229;DHT22;29904;51.058;5.378;2023-02-21T03:45:22;8.00;99.90
44229;DHT22;29904;51.058;5.378;2023-02-21T03:47:47;8.00;99.90
44229;DHT22;29904;51.058;5.378;2023-02-21T03:50:13;8.00;99.90
44229;DHT22;29904;51.058;5.378;2023-02-21T03:52:41;8.00;99.90
44229;DHT22;29904;51.058;5.378;2023-02-21T03:55:07;8.00;99.90
44229;DHT22;29904;51.058;5.378;2023-02-21T03:57:34;8.10;99.90
44229;DHT22;29904;51.058;5.378;2023-02-21T04:00:00;8.10;99.90
44229;DHT22;29904;51.058;5.378;2023-02-21T04:02:26;8.10;99.90
44229;DHT22;29904;51.058;5.378;2023-02-21T04:04:51;8.10;99.90
44229;DHT22;29904;51.058;5.378;2023-02-21T04:07:19;8.10;99.90
44229;DHT22;29904;51.058;5.378;2023-02-21T04:09:45;8.10;99.90
44229;DHT22;29904;51.058;5.378;2023-02-21T04:12:11;8.20;99.90
44229;DHT22;29904;51.058;5.378;2023-02-21T04:14:37;8.20;99.90
44229;DHT22;29904;51.058;5.378;2023-02-21T04:17:05;8.20;99.90
44229;DHT22;29904;51.058;5.378;2023-02-21T04:19:31;8.10;99.90
44229;DHT22;29904;51.058;5.378;2023-02-21T04:21:57;8.10;99.90
44229;DHT22;29904;51.058;5.378;2023-02-21T04:24:23;8.10;99.90
44229;DHT22;29904;51.058;5.378;2023-02-21T04:26:49;8.10;99.90
44229;DHT22;29904;51.058;5.378;2023-02-21T04:29:14;8.20;99.90
44229;DHT22;29904;51.058;5.378;2023-02-21T04:31:40;8.10;99.90
44229;DHT22;29904;51.058;5.378;2023-02-21T04:34:06;8.00;99.90
44229;DHT22;29904;51.058;5.378;2023-02-21T04:36:32;8.00;99.90
44229;DHT22;29904;51.058;5.378;2023-02-21T04:38:57;8.00;99.90
44229;DHT22;29904;51.058;5.378;2023-02-21T04:41:25;7.90;99.90
44229;DHT22;29904;51.058;5.378;2023-02-21T04:43:51;7.90;99.90
44229;DHT22;29904;51.058;5.378;2023-02-21T04:46:18;7.90;99.90
44229;DHT22;29904;51.058;5.378;2023-02-21T04:48:47;7.90;99.90
44229;DHT22;29904;51.058;5.378;2023-02-21T04:51:14;7.90;99.90
44229;DHT22;29904;51.058;5.378;2023-02-21T04:53:40;7.80;99.90
44229;DHT22;29904;51.058;5.378;2023-02-21T04:56:06;7.80;99.90
44229;DHT22;29904;51.058;5.378;2023-02-21T04:58:32;7.80;99.90
44229;DHT22;29904;51.058;5.378;2023-02-21T05:00:58;7.80;99.90
44229;DHT22;29904;51.058;5.378;2023-02-21T05:03:26;7.90;99.90
44229;DHT22;29904;51.058;5.378;2023-02-21T05:05:53;7.90;99.90
44229;DHT22;29904;51.058;5.378;2023-02-21T05:08:19;7.90;99.90
44229;DHT22;29904;51.058;5.378;2023-02-21T05:10:45;7.90;99.90
44229;DHT22;29904;51.058;5.378;2023-02-21T05:13:12;7.90;99.90
44229;DHT22;29904;51.058;5.378;2023-02-21T05:15:38;7.80;99.90
44229;DHT22;29904;51.058;5.378;2023-02-21T05:18:03;7.80;99.90
44229;DHT22;29904;51.058;5.378;2023-02-21T05:20:29;7.80;99.90
44229;DHT22;29904;51.058;5.378;2023-02-21T05:22:55;7.80;99.90
44229;DHT22;29904;51.058;5.378;2023-02-21T05:25:22;7.70;99.90
44229;DHT22;29904;51.058;5.378;2023-02-21T05:27:51;7.70;99.90
44229;DHT22;29904;51.058;5.378;2023-02-21T05:30:18;7.70;99.90
44229;DHT22;29904;51.058;5.378;2023-02-21T05:32:45;7.80;99.90
44229;DHT22;29904;51.058;5.378;2023-02-21T05:35:13;7.70;99.90
44229;DHT22;29904;51.058;5.378;2023-02-21T05:37:40;7.70;99.90
44229;DHT22;29904;51.058;5.378;2023-02-21T05:40:06;7.80;99.90
44229;DHT22;29904;51.058;5.378;2023-02-21T05:42:32;7.80;99.90
44229;DHT22;29904;51.058;5.378;2023-02-21T05:45:00;7.80;99.90
44229;DHT22;29904;51.058;5.378;2023-02-21T05:47:26;7.70;99.90
44229;DHT22;29904;51.058;5.378;2023-02-21T05:49:52;7.80;99.90
44229;DHT22;29904;51.058;5.378;2023-02-21T05:52:20;7.80;99.90
44229;DHT22;29904;51.058;5.378;2023-02-21T05:54:45;7.70;99.90
44229;DHT22;29904;51.058;5.378;2023-02-21T05:57:11;7.70;99.90
44229;DHT22;29904;51.058;5.378;2023-02-21T05:59:37;7.70;99.90
44229;DHT22;29904;51.058;5.378;2023-02-21T06:02:04;7.70;99.90
44229;DHT22;29904;51.058;5.378;2023-02-21T06:04:29;7.70;99.90
44229;DHT22;29904;51.058;5.378;2023-02-21T06:06:55;7.70;99.90
44229;DHT22;29904;51.058;5.378;2023-02-21T06:09:21;7.60;99.90
44229;DHT22;29904;51.058;5.378;2023-02-21T06:11:47;7.70;99.90
44229;DHT22;29904;51.058;5.378;2023-02-21T06:14:15;7.70;99.90
44229;DHT22;29904;51.058;5.378;2023-02-21T06:16:44;7.70;99.90
44229;DHT22;29904;51.058;5.378;2023-02-21T06:19:11;7.70;99.90
44229;DHT22;29904;51.058;5.378;2023-02-21T06:21:38;7.70;99.90
44229;DHT22;29904;51.058;5.378;2023-02-21T06:24:05;7.70;99.90
44229;DHT22;29904;51.058;5.378;2023-02-21T06:26:31;7.60;99.90
44229;DHT22;29904;51.058;5.378;2023-02-21T06:28:57;7.70;99.90
44229;DHT22;29904;51.058;5.378;2023-02-21T06:31:23;7.70;99.90
44229;DHT22;29904;51.058;5.378;2023-02-21T06:33:49;7.60;99.90
44229;DHT22;29904;51.058;5.378;2023-02-21T06:36:19;7.70;99.90
44229;DHT22;29904;51.058;5.378;2023-02-21T06:38:47;7.70;99.90
44229;DHT22;29904;51.058;5.378;2023-02-21T06:41:17;7.70;99.90
44229;DHT22;29904;51.058;5.378;2023-02-21T06:43:43;7.70;99.90
44229;DHT22;29904;51.058;5.378;2023-02-21T06:46:09;7.60;99.90
44229;DHT22;29904;51.058;5.378;2023-02-21T06:48:36;7.50;99.90
44229;DHT22;29904;51.058;5.378;2023-02-21T06:51:02;7.60;99.90
44229;DHT22;29904;51.058;5.378;2023-02-21T06:53:29;7.60;99.90
44229;DHT22;29904;51.058;5.378;2023-02-21T06:55:55;7.60;99.90
44229;DHT22;29904;51.058;5.378;2023-02-21T06:58:21;7.60;99.90
44229;DHT22;29904;51.058;5.378;2023-02-21T07:00:46;7.60;99.90
44229;DHT22;29904;51.058;5.378;2023-02-21T07:03:14;7.60;99.90
44229;DHT22;29904;51.058;5.378;2023-02-21T07:05:40;7.70;99.90
44229;DHT22;29904;51.058;5.378;2023-02-21T07:08:05;7.70;99.90
44229;DHT22;29904;51.058;5.378;2023-02-21T07:10:33;7.70;99.90
44229;DHT22;29904;51.058;5.378;2023-02-21T07:13:01;7.70;99.90
44229;DHT22;29904;51.058;5.378;2023-02-21T07:15:27;7.70;99.90
44229;DHT22;29904;51.058;5.378;2023-02-21T07:17:53;7.80;99.90
44229;DHT22;29904;51.058;5.378;2023-02-21T07:20:18;7.80;99.90
44229;DHT22;29904;51.058;5.378;2023-02-21T07:22:44;7.80;99.90
44229;DHT22;29904;51.058;5.378;2023-02-21T07:25:15;7.80;99.90
44229;DHT22;29904;51.058;5.378;2023-02-21T07:27:45;7.80;99.90
44229;DHT22;29904;51.058;5.378;2023-02-21T07:30:13;7.80;99.90
44229;DHT22;29904;51.058;5.378;2023-02-21T07:32:39;7.80;99.90
44229;DHT22;29904;51.058;5.378;2023-02-21T07:35:05;7.80;99.90
44229;DHT22;29904;51.058;5.378;2023-02-21T07:37:31;7.80;99.90
44229;DHT22;29904;51.058;5.378;2023-02-21T07:39:57;7.80;99.90
44229;DHT22;29904;51.058;5.378;2023-02-21T07:42:23;7.80;99.90
44229;DHT22;29904;51.058;5.378;2023-02-21T07:44:54;7.80;99.90
44229;DHT22;29904;51.058;5.378;2023-02-21T07:47:21;7.90;99.90
44229;DHT22;29904;51.058;5.378;2023-02-21T07:49:47;7.90;99.90
44229;DHT22;29904;51.058;5.378;2023-02-21T07:52:13;7.90;99.90
44229;DHT22;29904;51.058;5.378;2023-02-21T07:54:40;8.00;99.90
44229;DHT22;29904;51.058;5.378;2023-02-21T07:57:06;8.00;99.90
44229;DHT22;29904;51.058;5.378;2023-02-21T07:59:32;8.00;99.90
44229;DHT22;29904;51.058;5.378;2023-02-21T08:02:00;8.00;99.90
44229;DHT22;29904;51.058;5.378;2023-02-21T08:04:26;8.00;99.90
44229;DHT22;29904;51.058;5.378;2023-02-21T08:06:58;8.10;99.90
44229;DHT22;29904;51.058;5.378;2023-02-21T08:09:26;8.10;99.90
44229;DHT22;29904;51.058;5.378;2023-02-21T08:11:52;8.10;99.90
44229;DHT22;29904;51.058;5.378;2023-02-21T08:14:18;8.20;99.90
44229;DHT22;29904;51.058;5.378;2023-02-21T08:16:45;8.20;99.90
44229;DHT22;29904;51.058;5.378;2023-02-21T08:19:11;8.20;99.90
44229;DHT22;29904;51.058;5.378;2023-02-21T08:21:37;8.20;99.90
44229;DHT22;29904;51.058;5.378;2023-02-21T08:24:02;8.20;99.90
44229;DHT22;29904;51.058;5.378;2023-02-21T08:26:28;8.20;99.90
44229;DHT22;29904;51.058;5.378;2023-02-21T08:28:54;8.20;99.90
44229;DHT22;29904;51.058;5.378;2023-02-21T08:31:20;8.20;99.90
44229;DHT22;29904;51.058;5.378;2023-02-21T08:33:46;8.30;99.90
44229;DHT22;29904;51.058;5.378;2023-02-21T08:36:11;8.30;99.90
44229;DHT22;29904;51.058;5.378;2023-02-21T08:38:38;8.30;99.90
44229;DHT22;29904;51.058;5.378;2023-02-21T08:41:04;8.30;99.90
44229;DHT22;29904;51.058;5.378;2023-02-21T08:43:32;8.30;99.90
44229;DHT22;29904;51.058;5.378;2023-02-21T08:45:58;8.30;99.90
44229;DHT22;29904;51.058;5.378;2023-02-21T08:48:24;8.30;99.90
44229;DHT22;29904;51.058;5.378;2023-02-21T08:50:51;8.30;99.90
44229;DHT22;29904;51.058;5.378;2023-02-21T08:53:18;8.30;99.90
44229;DHT22;29904;51.058;5.378;2023-02-21T08:55:44;8.30;99.90
44229;DHT22;29904;51.058;5.378;2023-02-21T08:58:11;8.30;99.90
44229;DHT22;29904;51.058;5.378;2023-02-21T09:00:39;8.40;99.90
44229;DHT22;29904;51.058;5.378;2023-02-21T09:03:05;8.40;99.90
44229;DHT22;29904;51.058;5.378;2023-02-21T09:05:31;8.50;99.90
44229;DHT22;29904;51.058;5.378;2023-02-21T09:07:59;8.60;99.90
44229;DHT22;29904;51.058;5.378;2023-02-21T09:10:30;8.60;99.90
44229;DHT22;29904;51.058;5.378;2023-02-21T09:12:58;8.60;99.90
44229;DHT22;29904;51.058;5.378;2023-02-21T09:15:24;8.60;99.90
44229;DHT22;29904;51.058;5.378;2023-02-21T09:17:50;8.70;99.90
44229;DHT22;29904;51.058;5.378;2023-02-21T09:20:21;8.70;99.90
44229;DHT22;29904;51.058;5.378;2023-02-21T09:22:47;8.70;99.90
44229;DHT22;29904;51.058;5.378;2023-02-21T09:25:15;8.70;99.90
44229;DHT22;29904;51.058;5.378;2023-02-21T09:27:43;8.70;99.90
44229;DHT22;29904;51.058;5.378;2023-02-21T09:30:15;8.70;99.90
44229;DHT22;29904;51.058;5.378;2023-02-21T09:32:41;8.70;99.90
44229;DHT22;29904;51.058;5.378;2023-02-21T09:35:08;8.70;99.90
44229;DHT22;29904;51.058;5.378;2023-02-21T09:37:38;8.70;99.90
44229;DHT22;29904;51.058;5.378;2023-02-21T09:42:59;8.60;99.90
44229;DHT22;29904;51.058;5.378;2023-02-21T09:45:30;8.70;99.90
44229;DHT22;29904;51.058;5.378;2023-02-21T09:47:59;8.80;99.90
44229;DHT22;29904;51.058;5.378;2023-02-21T09:50:27;8.90;99.90
44229;DHT22;29904;51.058;5.378;2023-02-21T09:52:56;9.00;99.90
44229;DHT22;29904;51.058;5.378;2023-02-21T09:55:35;8.90;99.90
44229;DHT22;29904;51.058;5.378;2023-02-21T09:58:01;9.00;99.90
44229;DHT22;29904;51.058;5.378;2023-02-21T10:00:37;9.70;99.90
44229;DHT22;29904;51.058;5.378;2023-02-21T10:05:54;9.10;99.90
44229;DHT22;29904;51.058;5.378;2023-02-21T10:11:23;9.10;99.90
44229;DHT22;29904;51.058;5.378;2023-02-21T10:17:15;9.10;99.90
44229;DHT22;29904;51.058;5.378;2023-02-21T10:19:44;9.00;99.90
44229;DHT22;29904;51.058;5.378;2023-02-21T10:22:19;9.10;99.90
44229;DHT22;29904;51.058;5.378;2023-02-21T10:24:47;9.10;99.90
44229;DHT22;29904;51.058;5.378;2023-02-21T10:30:04;9.10;99.90
44229;DHT22;29904;51.058;5.378;2023-02-21T10:32:35;9.20;99.90
44229;DHT22;29904;51.058;5.378;2023-02-21T10:35:02;9.30;99.90
44229;DHT22;29904;51.058;5.378;2023-02-21T10:40:32;9.40;99.90
44229;DHT22;29904;51.058;5.378;2023-02-21T10:43:16;9.40;99.90
44229;DHT22;29904;51.058;5.378;2023-02-21T10:48:50;9.30;99.90
44229;DHT22;29904;51.058;5.378;2023-02-21T10:53:53;9.30;99.90
44229;DHT22;29904;51.058;5.378;2023-02-21T10:56:23;9.40;99.90
44229;DHT22;29904;51.058;5.378;2023-02-21T11:03:53;9.50;99.90
44229;DHT22;29904;51.058;5.378;2023-02-21T11:08:55;9.40;99.90
44229;DHT22;29904;51.058;5.378;2023-02-21T11:11:41;9.50;99.90
44229;DHT22;29904;51.058;5.378;2023-02-21T11:14:24;9.40;99.90
44229;DHT22;29904;51.058;5.378;2023-02-21T11:17:15;9.40;99.90
44229;DHT22;29904;51.058;5.378;2023-02-21T11:22:13;9.40;99.90
44229;DHT22;29904;51.058;5.378;2023-02-21T11:25:02;9.50;99.90
44229;DHT22;29904;51.058;5.378;2023-02-21T11:27:33;9.50;99.90
44229;DHT22;29904;51.058;5.378;2023-02-21T11:30:03;9.50;99.90
44229;DHT22;29904;51.058;5.378;2023-02-21T11:32:37;9.40;99.90
44229;DHT22;29904;51.058;5.378;2023-02-21T11:38:00;9.40;99.90
44229;DHT22;29904;51.058;5.378;2023-02-21T11:40:33;9.40;99.90
44229;DHT22;29904;51.058;5.378;2023-02-21T11:43:13;9.40;99.90
44229;DHT22;29904;51.058;5.378;2023-02-21T11:54:06;9.60;99.90
44229;DHT22;29904;51.058;5.378;2023-02-21T12:12:58;9.80;99.90
44229;DHT22;29904;51.058;5.378;2023-02-21T12:21:08;9.60;99.90
44229;DHT22;29904;51.058;5.378;2023-02-21T12:37:54;9.70;99.90
44229;DHT22;29904;51.058;5.378;2023-02-21T12:41:22;9.70;99.90
44229;DHT22;29904;51.058;5.378;2023-02-21T12:51:12;9.80;99.90
44229;DHT22;29904;51.058;5.378;2023-02-21T12:53:44;9.80;99.90
44229;DHT22;29904;51.058;5.378;2023-02-21T13:04:21;9.80;99.90
44229;DHT22;29904;51.058;5.378;2023-02-21T13:07:05;9.80;99.90
44229;DHT22;29904;51.058;5.378;2023-02-21T13:09:44;9.70;99.90
44229;DHT22;29904;51.058;5.378;2023-02-21T13:12:18;9.80;99.90
44229;DHT22;29904;51.058;5.378;2023-02-21T13:14:52;9.70;99.90
44229;DHT22;29904;51.058;5.378;2023-02-21T13:17:20;9.70;99.90
44229;DHT22;29904;51.058;5.378;2023-02-21T13:19:47;9.60;99.90
44229;DHT22;29904;51.058;5.378;2023-02-21T13:28:25;9.50;99.90
44229;DHT22;29904;51.058;5.378;2023-02-21T13:31:22;9.40;99.90
44229;DHT22;29904;51.058;5.378;2023-02-21T13:33:58;9.40;99.90
44229;DHT22;29904;51.058;5.378;2023-02-21T13:36:31;9.30;99.90
44229;DHT22;29904;51.058;5.378;2023-02-21T13:41:55;9.20;99.90
44229;DHT22;29904;51.058;5.378;2023-02-21T13:47:11;9.20;99.90
44229;DHT22;29904;51.058;5.378;2023-02-21T13:57:37;9.30;99.90
44229;DHT22;29904;51.058;5.378;2023-02-21T14:08:27;9.30;99.90
44229;DHT22;29904;51.058;5.378;2023-02-21T14:13:41;9.40;99.90
44229;DHT22;29904;51.058;5.378;2023-02-21T14:24:02;9.30;99.90
44229;DHT22;29904;51.058;5.378;2023-02-21T14:26:43;9.30;99.90
44229;DHT22;29904;51.058;5.378;2023-02-21T14:37:34;9.40;99.90
44229;DHT22;29904;51.058;5.378;2023-02-21T15:03:02;9.30;99.90
44229;DHT22;29904;51.058;5.378;2023-02-21T15:10:43;9.50;99.90
44229;DHT22;29904;51.058;5.378;2023-02-21T15:13:33;9.50;99.90
44229;DHT22;29904;51.058;5.378;2023-02-21T15:16:11;9.50;99.90
44229;DHT22;29904;51.058;5.378;2023-02-21T15:18:55;9.50;99.90
44229;DHT22;29904;51.058;5.378;2023-02-21T15:21:22;9.50;99.90
44229;DHT22;29904;51.058;5.378;2023-02-21T15:24:00;9.40;99.90
44229;DHT22;29904;51.058;5.378;2023-02-21T15:26:31;9.40;99.90
44229;DHT22;29904;51.058;5.378;2023-02-21T15:31:35;9.30;99.90
44229;DHT22;29904;51.058;5.378;2023-02-21T15:34:03;9.30;99.90
44229;DHT22;29904;51.058;5.378;2023-02-21T15:36:29;9.20;99.90
44229;DHT22;29904;51.058;5.378;2023-02-21T15:39:17;9.30;99.90
44229;DHT22;29904;51.058;5.378;2023-02-21T15:41:49;9.40;99.90
44229;DHT22;29904;51.058;5.378;2023-02-21T15:47:01;9.40;99.90
44229;DHT22;29904;51.058;5.378;2023-02-21T15:49:40;9.30;99.90
44229;DHT22;29904;51.058;5.378;2023-02-21T15:52:11;9.30;99.90
44229;DHT22;29904;51.058;5.378;2023-02-21T15:54:50;9.30;99.90
44229;DHT22;29904;51.058;5.378;2023-02-21T15:57:35;9.30;99.90
44229;DHT22;29904;51.058;5.378;2023-02-21T16:05:38;9.20;99.90
44229;DHT22;29904;51.058;5.378;2023-02-21T16:08:09;9.20;99.90
44229;DHT22;29904;51.058;5.378;2023-02-21T16:10:37;9.20;99.90
44229;DHT22;29904;51.058;5.378;2023-02-21T16:13:05;9.20;99.90
44229;DHT22;29904;51.058;5.378;2023-02-21T16:15:36;9.20;99.90
44229;DHT22;29904;51.058;5.378;2023-02-21T16:18:08;9.10;99.90
44229;DHT22;29904;51.058;5.378;2023-02-21T16:20:36;9.10;99.90
44229;DHT22;29904;51.058;5.378;2023-02-21T16:23:25;9.10;99.90
44229;DHT22;29904;51.058;5.378;2023-02-21T16:28:33;9.00;99.90
44229;DHT22;29904;51.058;5.378;2023-02-21T16:31:02;8.90;99.90
44229;DHT22;29904;51.058;5.378;2023-02-21T16:33:29;8.90;99.90
44229;DHT22;29904;51.058;5.378;2023-02-21T16:35:58;8.90;99.90
44229;DHT22;29904;51.058;5.378;2023-02-21T16:38:25;8.90;99.90
44229;DHT22;29904;51.058;5.378;2023-02-21T16:40:52;8.90;99.90
44229;DHT22;29904;51.058;5.378;2023-02-21T16:43:27;8.90;99.90
44229;DHT22;29904;51.058;5.378;2023-02-21T16:45:54;8.90;99.90
44229;DHT22;29904;51.058;5.378;2023-02-21T16:48:26;8.80;99.90
44229;DHT22;29904;51.058;5.378;2023-02-21T16:51:01;8.80;99.90
44229;DHT22;29904;51.058;5.378;2023-02-21T16:53:27;8.70;99.90
44229;DHT22;29904;51.058;5.378;2023-02-21T16:55:54;8.70;99.90
44229;DHT22;29904;51.058;5.378;2023-02-21T16:58:27;8.70;99.90
44229;DHT22;29904;51.058;5.378;2023-02-21T17:00:58;8.70;99.90
44229;DHT22;29904;51.058;5.378;2023-02-21T17:03:24;8.70;99.90
44229;DHT22;29904;51.058;5.378;2023-02-21T17:05:51;8.80;99.90
44229;DHT22;29904;51.058;5.378;2023-02-21T17:08:20;8.80;99.90
44229;DHT22;29904;51.058;5.378;2023-02-21T17:10:46;8.80;99.90
44229;DHT22;29904;51.058;5.378;2023-02-21T17:13:14;8.80;99.90
44229;DHT22;29904;51.058;5.378;2023-02-21T17:15:40;8.80;99.90
44229;DHT22;29904;51.058;5.378;2023-02-21T17:18:05;8.80;99.90
44229;DHT22;29904;51.058;5.378;2023-02-21T17:20:31;8.80;99.90
44229;DHT22;29904;51.058;5.378;2023-02-21T17:22:57;8.80;99.90
44229;DHT22;29904;51.058;5.378;2023-02-21T17:25:24;8.80;99.90
44229;DHT22;29904;51.058;5.378;2023-02-21T17:27:53;8.80;99.90
44229;DHT22;29904;51.058;5.378;2023-02-21T17:30:21;8.80;99.90
44229;DHT22;29904;51.058;5.378;2023-02-21T17:32:48;8.80;99.90
44229;DHT22;29904;51.058;5.378;2023-02-21T17:35:17;8.80;99.90
44229;DHT22;29904;51.058;5.378;2023-02-21T17:37:44;8.70;99.90
44229;DHT22;29904;51.058;5.378;2023-02-21T17:40:12;8.70;99.90
44229;DHT22;29904;51.058;5.378;2023-02-21T17:42:39;8.60;99.90
44229;DHT22;29904;51.058;5.378;2023-02-21T17:45:05;8.50;99.90
44229;DHT22;29904;51.058;5.378;2023-02-21T17:47:31;8.50;99.90
44229;DHT22;29904;51.058;5.378;2023-02-21T17:49:58;8.50;99.90
44229;DHT22;29904;51.058;5.378;2023-02-21T17:52:25;8.50;99.90
44229;DHT22;29904;51.058;5.378;2023-02-21T17:54:51;8.50;99.90
44229;DHT22;29904;51.058;5.378;2023-02-21T17:57:19;8.50;99.90
44229;DHT22;29904;51.058;5.378;2023-02-21T17:59:45;8.50;99.90
44229;DHT22;29904;51.058;5.378;2023-02-21T18:02:12;8.50;99.90
44229;DHT22;29904;51.058;5.378;2023-02-21T18:04:38;8.50;99.90
44229;DHT22;29904;51.058;5.378;2023-02-21T18:07:04;8.50;99.90
44229;DHT22;29904;51.058;5.378;2023-02-21T18:09:30;8.50;99.90
44229;DHT22;29904;51.058;5.378;2023-02-21T18:11:58;8.60;99.90
44229;DHT22;29904;51.058;5.378;2023-02-21T18:14:25;8.50;99.90
44229;DHT22;29904;51.058;5.378;2023-02-21T18:16:51;8.50;99.90
44229;DHT22;29904;51.058;5.378;2023-02-21T18:19:23;8.40;99.90
44229;DHT22;29904;51.058;5.378;2023-02-21T18:21:49;8.30;99.90
44229;DHT22;29904;51.058;5.378;2023-02-21T18:24:15;8.20;99.90
44229;DHT22;29904;51.058;5.378;2023-02-21T18:26:43;8.20;99.90
44229;DHT22;29904;51.058;5.378;2023-02-21T18:29:12;8.10;99.90
44229;DHT22;29904;51.058;5.378;2023-02-21T18:31:38;8.10;99.90
44229;DHT22;29904;51.058;5.378;2023-02-21T18:34:04;8.10;99.90
44229;DHT22;29904;51.058;5.378;2023-02-21T18:36:31;8.10;99.90
44229;DHT22;29904;51.058;5.378;2023-02-21T18:38:57;8.10;99.90
44229;DHT22;29904;51.058;5.378;2023-02-21T18:41:23;8.10;99.90
44229;DHT22;29904;51.058;5.378;2023-02-21T18:43:49;8.00;99.90
44229;DHT22;29904;51.058;5.378;2023-02-21T18:46:18;8.00;99.90
44229;DHT22;29904;51.058;5.378;2023-02-21T18:48:46;8.00;99.90
44229;DHT22;29904;51.058;5.378;2023-02-21T18:51:14;7.90;99.90
44229;DHT22;29904;51.058;5.378;2023-02-21T18:53:46;7.90;99.90
44229;DHT22;29904;51.058;5.378;2023-02-21T18:56:15;7.90;99.90
44229;DHT22;29904;51.058;5.378;2023-02-21T18:58:41;7.80;99.90
44229;DHT22;29904;51.058;5.378;2023-02-21T19:01:08;7.70;99.90
44229;DHT22;29904;51.058;5.378;2023-02-21T19:03:36;7.70;99.90
44229;DHT22;29904;51.058;5.378;2023-02-21T19:06:05;7.70;99.90
44229;DHT22;29904;51.058;5.378;2023-02-21T19:08:31;7.60;99.90
44229;DHT22;29904;51.058;5.378;2023-02-21T19:10:57;7.70;99.90
44229;DHT22;29904;51.058;5.378;2023-02-21T19:13:23;7.70;99.90
44229;DHT22;29904;51.058;5.378;2023-02-21T19:15:49;7.70;99.90
44229;DHT22;29904;51.058;5.378;2023-02-21T19:18:15;7.70;99.90
44229;DHT22;29904;51.058;5.378;2023-02-21T19:20:43;7.60;99.90
44229;DHT22;29904;51.058;5.378;2023-02-21T19:23:09;7.50;99.90
44229;DHT22;29904;51.058;5.378;2023-02-21T19:25:36;7.50;99.90
44229;DHT22;29904;51.058;5.378;2023-02-21T19:28:02;7.40;99.90
44229;DHT22;29904;51.058;5.378;2023-02-21T19:30:32;7.40;99.90
44229;DHT22;29904;51.058;5.378;2023-02-21T19:33:00;7.40;99.90
44229;DHT22;29904;51.058;5.378;2023-02-21T19:35:27;7.50;99.90
44229;DHT22;29904;51.058;5.378;2023-02-21T19:37:54;7.40;99.90
44229;DHT22;29904;51.058;5.378;2023-02-21T19:40:21;7.50;99.90
44229;DHT22;29904;51.058;5.378;2023-02-21T19:42:47;7.40;99.90
44229;DHT22;29904;51.058;5.378;2023-02-21T19:45:16;7.40;99.90
44229;DHT22;29904;51.058;5.378;2023-02-21T19:47:42;7.30;99.90
44229;DHT22;29904;51.058;5.378;2023-02-21T19:50:07;7.40;99.90
44229;DHT22;29904;51.058;5.378;2023-02-21T19:52:33;7.30;99.90
44229;DHT22;29904;51.058;5.378;2023-02-21T19:54:59;7.30;99.90